Terminal Aerodrome Forecast
Issued by NWS Quad Cities IA IL

Home | Current Version | Previous Version | Graphics & Text | Print | Product List | Glossary On
Versions: 1 2 3 4 5 6 7 8 9 10 11 12 13 14 15 16 17 18 19
000
FTUS43 KDVN 041134
TAFDBQ
TAF
KDBQ 041134Z 0412/0512 VRB05KT P6SM BKN100
     FM041500 03010KT P6SM SCT050 BKN100
     FM042300 06008KT P6SM -SHRA VCTS BKN050CB
      TEMPO 0501/0503 2SM TSRA BKN025CB=

USA.gov is the U.S. government's official web portal to all federal, state and local government web resources and services.